createdAt,value
2023-10-26T00:02:24.722Z,8.73
2023-10-26T00:05:27.080Z,9.52
2023-10-26T00:08:29.417Z,8.65
2023-10-26T00:11:31.707Z,10.05
2023-10-26T00:14:34.924Z,9.63
2023-10-26T00:17:37.825Z,11.47
2023-10-26T00:20:40.002Z,13.57
2023-10-26T00:23:42.310Z,12.68
2023-10-26T00:26:44.530Z,10.68
2023-10-26T00:29:46.874Z,10.27
2023-10-26T00:32:49.101Z,10.27
2023-10-26T00:35:52.526Z,13.48
2023-10-26T00:38:54.739Z,15.13
2023-10-26T00:41:57.141Z,11.30
2023-10-26T00:44:59.285Z,10.55
2023-10-26T00:48:01.772Z,9.70
2023-10-26T00:51:04.462Z,10.88
2023-10-26T00:54:07.224Z,9.48
2023-10-26T00:57:10.354Z,10.02
2023-10-26T01:00:12.962Z,9.25
2023-10-26T01:03:15.539Z,9.27
2023-10-26T01:06:17.827Z,9.95
2023-10-26T01:09:22.415Z,9.43
2023-10-26T01:12:25.250Z,10.25
2023-10-26T01:15:28.064Z,10.43
2023-10-26T01:18:30.334Z,11.27
2023-10-26T01:21:45.801Z,11.05
2023-10-26T01:24:49.818Z,10.20
2023-10-26T01:27:51.995Z,10.27
2023-10-26T01:30:54.115Z,10.77
2023-10-26T01:33:56.262Z,10.40
2023-10-26T01:36:58.567Z,10.23
2023-10-26T01:40:00.721Z,10.57
2023-10-26T01:43:02.883Z,10.80
2023-10-26T01:46:05.022Z,10.10
2023-10-26T01:49:08.448Z,10.90
2023-10-26T01:52:10.662Z,10.82
2023-10-26T01:55:12.845Z,10.18
2023-10-26T01:58:15.041Z,11.82
2023-10-26T02:01:17.307Z,11.73
2023-10-26T02:04:19.544Z,12.03
2023-10-26T02:07:22.167Z,10.52
2023-10-26T02:10:30.283Z,11.05
2023-10-26T02:13:32.521Z,10.80
2023-10-26T02:16:34.706Z,13.57
2023-10-26T02:19:36.961Z,12.00
2023-10-26T02:22:39.249Z,11.40
2023-10-26T02:25:41.549Z,11.75
2023-10-26T02:28:43.753Z,12.13
2023-10-26T02:31:45.873Z,10.82
2023-10-26T02:34:48.213Z,10.37
2023-10-26T02:37:51.122Z,10.85
2023-10-26T02:40:54.455Z,11.00
2023-10-26T02:43:56.739Z,11.05
2023-10-26T02:46:58.879Z,10.38
2023-10-26T02:50:01.319Z,10.43
2023-10-26T02:53:03.589Z,10.98
2023-10-26T02:56:07.633Z,11.30
2023-10-26T02:59:10.276Z,9.63
2023-10-26T03:02:12.386Z,11.02
2023-10-26T03:05:15.676Z,11.20
2023-10-26T03:08:18.292Z,10.38
2023-10-26T03:11:20.482Z,10.80
2023-10-26T03:14:22.766Z,11.43
2023-10-26T03:17:24.866Z,10.63
2023-10-26T03:20:27.053Z,10.93
2023-10-26T03:23:29.152Z,10.57
2023-10-26T03:26:31.513Z,10.38
2023-10-26T03:29:33.697Z,10.32
2023-10-26T03:32:36.274Z,11.07
2023-10-26T03:35:38.621Z,12.63
2023-10-26T03:38:40.755Z,12.05
2023-10-26T03:41:43.478Z,9.95
2023-10-26T03:44:45.952Z,8.85
2023-10-26T03:47:48.322Z,8.68
2023-10-26T03:50:50.670Z,8.23
2023-10-26T03:53:52.901Z,8.32
2023-10-26T03:56:55.153Z,7.82
2023-10-26T03:59:57.375Z,8.15
2023-10-26T04:02:59.647Z,7.40
2023-10-26T04:06:01.846Z,7.83
2023-10-26T04:09:04.155Z,7.43
2023-10-26T04:12:06.431Z,8.57
2023-10-26T04:15:08.780Z,7.57
2023-10-26T04:18:11.005Z,7.90
2023-10-26T04:21:13.210Z,7.20
2023-10-26T04:24:15.557Z,8.77
2023-10-26T04:27:17.754Z,7.60
2023-10-26T04:30:19.975Z,8.68
2023-10-26T04:33:22.158Z,8.27
2023-10-26T04:36:24.282Z,8.17
2023-10-26T04:39:26.446Z,8.60
2023-10-26T04:42:28.609Z,8.10
2023-10-26T04:45:30.852Z,7.82
2023-10-26T04:48:33.023Z,7.95
2023-10-26T04:51:35.265Z,7.47
2023-10-26T04:54:37.525Z,8.05
2023-10-26T04:57:39.688Z,7.28
2023-10-26T05:00:41.794Z,7.55
2023-10-26T05:03:43.986Z,7.43
2023-10-26T05:06:46.330Z,7.57
2023-10-26T05:09:49.088Z,8.68
2023-10-26T05:12:51.230Z,6.72
2023-10-26T05:15:53.410Z,7.65
2023-10-26T05:18:55.704Z,6.93
2023-10-26T05:21:57.830Z,8.87
2023-10-26T05:25:01.921Z,8.80
2023-10-26T05:28:04.783Z,7.13
2023-10-26T05:31:06.925Z,6.47
2023-10-26T05:34:09.065Z,6.95
2023-10-26T05:37:11.257Z,6.77
2023-10-26T05:40:13.448Z,6.50
2023-10-26T05:43:15.574Z,6.07
2023-10-26T05:46:19.182Z,5.65
2023-10-26T05:49:21.460Z,5.57
2023-10-26T05:52:23.625Z,5.50
2023-10-26T05:55:26.104Z,5.13
2023-10-26T05:58:28.312Z,5.70
2023-10-26T06:01:30.558Z,6.93
2023-10-26T06:04:32.992Z,5.80
2023-10-26T06:07:35.332Z,7.00
2023-10-26T06:10:38.564Z,6.32
2023-10-26T06:13:40.657Z,6.78
2023-10-26T06:16:42.909Z,6.82
2023-10-26T06:19:45.041Z,5.32
2023-10-26T06:22:47.189Z,5.43
2023-10-26T06:25:49.405Z,6.07
2023-10-26T06:28:51.642Z,5.78
2023-10-26T06:31:53.866Z,6.93
2023-10-26T06:34:56.681Z,5.75
2023-10-26T06:37:59.963Z,5.83
2023-10-26T06:41:02.191Z,4.80
2023-10-26T06:44:04.540Z,5.22
2023-10-26T06:47:06.700Z,6.47
2023-10-26T06:50:09.057Z,5.60
2023-10-26T06:53:12.442Z,5.77
2023-10-26T06:56:14.770Z,4.97
2023-10-26T06:59:16.985Z,5.07
2023-10-26T07:02:19.657Z,4.75
2023-10-26T07:05:21.922Z,4.35
2023-10-26T07:08:24.049Z,5.33
2023-10-26T07:11:26.257Z,4.82
2023-10-26T07:14:28.554Z,5.07
2023-10-26T07:17:30.794Z,4.47
2023-10-26T07:20:33.369Z,4.93
2023-10-26T07:23:35.723Z,5.23
2023-10-26T07:26:37.917Z,4.78
2023-10-26T07:29:40.086Z,5.30
2023-10-26T07:32:42.256Z,4.47
2023-10-26T07:35:49.228Z,4.75
2023-10-26T07:39:45.765Z,4.63
2023-10-26T07:42:13.573Z,3.38
2023-10-26T07:45:15.865Z,4.18
2023-10-26T07:48:18.321Z,4.00
2023-10-26T07:51:20.513Z,3.60
2023-10-26T07:54:22.709Z,4.00
2023-10-26T07:57:26.304Z,4.65
2023-10-26T08:00:28.837Z,5.35
2023-10-26T08:03:31.051Z,3.58
2023-10-26T08:06:33.328Z,3.90
2023-10-26T08:09:35.545Z,4.03
2023-10-26T08:12:37.834Z,3.42
2023-10-26T08:16:10.876Z,3.30
2023-10-26T08:19:04.963Z,4.43
2023-10-26T08:22:08.570Z,4.30
2023-10-26T08:25:10.767Z,4.30
2023-10-26T08:28:12.966Z,4.30
2023-10-26T08:31:15.327Z,4.03
2023-10-26T08:34:17.575Z,3.80
2023-10-26T08:37:19.720Z,3.55
2023-10-26T08:40:22.281Z,3.30
2023-10-26T08:43:25.112Z,3.60
2023-10-26T08:46:27.545Z,3.85
2023-10-26T08:49:30.425Z,3.85
2023-10-26T08:52:32.717Z,3.47
2023-10-26T08:55:36.106Z,3.20
2023-10-26T08:58:38.612Z,3.45
2023-10-26T09:01:40.939Z,3.83
2023-10-26T09:05:02.195Z,3.05
2023-10-26T09:08:16.830Z,3.67
2023-10-26T09:11:23.717Z,3.20
2023-10-26T09:14:25.981Z,3.40
2023-10-26T09:17:29.049Z,3.70
2023-10-26T09:20:32.916Z,3.40
2023-10-26T09:23:36.899Z,3.33
2023-10-26T09:26:41.981Z,4.00
2023-10-26T09:29:45.572Z,4.22
2023-10-26T09:32:47.892Z,2.88
2023-10-26T09:35:50.224Z,3.58
2023-10-26T09:38:53.253Z,3.47
2023-10-26T09:41:56.755Z,3.87
2023-10-26T09:44:58.953Z,3.40
2023-10-26T09:48:04.379Z,3.17
2023-10-26T09:51:06.594Z,3.30
2023-10-26T09:54:09.931Z,3.13
2023-10-26T09:57:16.725Z,3.43
2023-10-26T10:00:19.123Z,2.88
2023-10-26T10:03:21.441Z,3.20
2023-10-26T10:06:42.284Z,2.97
2023-10-26T10:10:02.697Z,2.80
2023-10-26T10:13:04.990Z,3.17
2023-10-26T10:16:28.267Z,3.53
2023-10-26T10:19:33.713Z,3.17
2023-10-26T10:22:39.232Z,3.92
2023-10-26T10:25:50.276Z,3.72
2023-10-26T10:28:52.594Z,3.97
2023-10-26T10:31:54.797Z,3.90
2023-10-26T10:34:58.395Z,4.03
2023-10-26T10:38:12.818Z,3.35
2023-10-26T10:41:16.079Z,3.38
2023-10-26T10:44:18.559Z,3.13
2023-10-26T10:47:20.685Z,3.08
2023-10-26T10:50:26.686Z,3.33
2023-10-26T10:53:30.694Z,3.20
2023-10-26T10:56:36.993Z,2.40
2023-10-26T10:59:39.208Z,2.80
2023-10-26T11:02:46.274Z,2.80
2023-10-26T11:05:48.836Z,2.70
2023-10-26T11:08:50.983Z,2.30
2023-10-26T11:11:53.158Z,3.33
2023-10-26T11:14:55.290Z,3.00
2023-10-26T11:17:57.596Z,3.63
2023-10-26T11:21:01.980Z,3.10
2023-10-26T11:24:04.391Z,3.30
2023-10-26T11:27:10.691Z,3.17
2023-10-26T11:30:12.841Z,3.30
2023-10-26T11:33:35.554Z,2.97
2023-10-26T11:36:38.648Z,2.40
2023-10-26T11:39:51.979Z,3.08
2023-10-26T11:42:58.180Z,3.33
2023-10-26T11:46:01.026Z,2.40
2023-10-26T11:49:04.563Z,2.78
2023-10-26T11:52:07.016Z,2.17
2023-10-26T11:55:09.197Z,3.88
2023-10-26T11:58:11.669Z,4.38
2023-10-26T12:01:14.489Z,3.83
2023-10-26T12:04:16.953Z,3.55
2023-10-26T12:07:19.215Z,3.88
2023-10-26T12:10:22.178Z,3.95
2023-10-26T12:13:24.308Z,3.88
2023-10-26T12:16:26.842Z,3.67
2023-10-26T12:19:30.353Z,4.22
2023-10-26T12:22:32.982Z,3.97
2023-10-26T12:25:35.140Z,5.05
2023-10-26T12:28:37.315Z,4.30
2023-10-26T12:31:39.544Z,5.43
2023-10-26T12:34:41.868Z,5.30
2023-10-26T12:37:44.019Z,4.22
2023-10-26T12:40:47.883Z,3.83
2023-10-26T12:43:50.042Z,3.92
2023-10-26T12:46:52.912Z,4.10
2023-10-26T12:49:55.226Z,3.55
2023-10-26T12:52:57.454Z,3.17
2023-10-26T12:55:59.553Z,3.35
2023-10-26T12:59:01.814Z,3.17
2023-10-26T13:02:04.070Z,3.33
2023-10-26T13:05:06.234Z,3.22
2023-10-26T13:08:09.675Z,3.95
2023-10-26T13:11:13.780Z,2.90
2023-10-26T13:14:16.075Z,2.38
2023-10-26T13:17:18.271Z,2.57
2023-10-26T13:20:20.513Z,2.63
2023-10-26T13:23:22.668Z,2.35
2023-10-26T13:26:24.763Z,2.75
2023-10-26T13:29:26.965Z,2.28
2023-10-26T13:32:29.275Z,4.00
2023-10-26T13:35:32.848Z,4.10
2023-10-26T13:38:35.077Z,2.80
2023-10-26T13:41:37.202Z,4.13
2023-10-26T13:44:39.346Z,3.75
2023-10-26T13:47:41.455Z,4.20
2023-10-26T13:50:46.179Z,3.40
2023-10-26T13:53:50.537Z,4.40
2023-10-26T13:56:54.165Z,3.40
2023-10-26T13:59:56.468Z,2.28
2023-10-26T14:02:58.622Z,2.20
2023-10-26T14:06:00.828Z,2.28
2023-10-26T14:09:04.677Z,2.65
2023-10-26T14:12:07.773Z,2.35
2023-10-26T14:15:12.026Z,2.15
2023-10-26T14:18:14.122Z,2.30
2023-10-26T14:21:17.391Z,1.95
2023-10-26T14:24:19.667Z,1.70
2023-10-26T14:27:22.292Z,1.73
2023-10-26T14:30:24.543Z,1.50
2023-10-26T14:33:26.681Z,2.00
2023-10-26T14:36:28.748Z,1.80
2023-10-26T14:39:31.490Z,1.65
2023-10-26T14:42:33.734Z,1.95
2023-10-26T14:45:36.043Z,2.00
2023-10-26T14:48:38.780Z,2.00
2023-10-26T14:51:45.835Z,1.95
2023-10-26T14:54:48.258Z,2.58
2023-10-26T14:57:50.530Z,2.08
2023-10-26T15:00:52.678Z,2.55
2023-10-26T15:03:56.107Z,1.80
2023-10-26T15:06:59.067Z,2.33
2023-10-26T15:10:21.875Z,2.63
2023-10-26T15:13:23.381Z,2.15
2023-10-26T15:16:27.653Z,2.83
2023-10-26T15:19:29.838Z,2.07
2023-10-26T15:22:31.921Z,2.20
2023-10-26T15:25:37.575Z,2.30
2023-10-26T15:28:39.811Z,2.72
2023-10-26T15:31:42.210Z,2.00
2023-10-26T15:34:45.221Z,2.90
2023-10-26T15:37:47.457Z,2.72
2023-10-26T15:41:00.084Z,3.10
2023-10-26T15:44:02.356Z,2.72
2023-10-26T15:47:05.453Z,2.90
2023-10-26T15:50:07.819Z,3.43
2023-10-26T15:53:10.169Z,3.10
2023-10-26T15:56:12.412Z,3.63
2023-10-26T15:59:16.554Z,3.38
2023-10-26T16:02:19.500Z,3.67
2023-10-26T16:05:21.810Z,3.87
2023-10-26T16:08:23.911Z,3.58
2023-10-26T16:11:26.038Z,3.55
2023-10-26T16:14:28.262Z,3.00
2023-10-26T16:17:30.854Z,3.30
2023-10-26T16:20:35.141Z,3.13
2023-10-26T16:23:38.424Z,3.20
2023-10-26T16:26:41.355Z,3.97
2023-10-26T16:29:44.950Z,4.50
2023-10-26T16:32:47.360Z,5.43
2023-10-26T16:35:49.514Z,3.03
2023-10-26T16:38:51.954Z,2.78
2023-10-26T16:41:54.038Z,3.63
2023-10-26T16:44:56.174Z,4.47
2023-10-26T16:47:58.326Z,5.38
2023-10-26T16:51:01.833Z,5.87
2023-10-26T16:54:04.728Z,5.93
2023-10-26T16:57:08.742Z,6.05
2023-10-26T17:00:11.508Z,5.82
2023-10-26T17:03:13.718Z,5.13
2023-10-26T17:06:15.819Z,5.30
2023-10-26T17:09:17.998Z,4.72
2023-10-26T17:12:20.116Z,4.35
2023-10-26T17:15:22.465Z,4.38
2023-10-26T17:18:24.721Z,4.78
2023-10-26T17:21:26.972Z,4.50
2023-10-26T17:24:31.039Z,4.10
2023-10-26T17:27:33.253Z,3.80
2023-10-26T17:30:36.059Z,3.20
2023-10-26T17:33:38.370Z,3.75
2023-10-26T17:36:41.156Z,4.13
2023-10-26T17:39:43.759Z,18.58
2023-10-26T17:42:46.306Z,10.85
2023-10-26T17:45:55.317Z,8.75
2023-10-26T17:48:58.158Z,5.93
2023-10-26T17:52:00.393Z,8.93
2023-10-26T17:55:03.985Z,6.18
2023-10-26T17:58:06.396Z,5.07
2023-10-26T18:01:10.414Z,5.00
2023-10-26T18:04:13.178Z,4.85
2023-10-26T18:07:16.877Z,4.83
2023-10-26T18:10:21.353Z,7.28
2023-10-26T18:13:24.050Z,6.32
2023-10-26T18:16:30.161Z,6.95
2023-10-26T18:19:32.422Z,6.88
2023-10-26T18:22:34.594Z,6.07
2023-10-26T18:25:37.007Z,7.13
2023-10-26T18:28:40.440Z,9.93
2023-10-26T18:31:43.333Z,19.98
2023-10-26T18:34:45.776Z,15.52
2023-10-26T18:37:48.207Z,10.20
2023-10-26T18:40:50.401Z,7.88
2023-10-26T18:43:54.223Z,6.53
2023-10-26T18:46:57.857Z,10.25
2023-10-26T18:50:00.041Z,11.48
2023-10-26T18:53:02.859Z,13.43
2023-10-26T18:56:05.155Z,9.80
2023-10-26T18:59:07.314Z,8.23
2023-10-26T19:02:09.878Z,6.38
2023-10-26T19:05:12.353Z,5.68
2023-10-26T19:08:15.608Z,7.23
2023-10-26T19:11:18.062Z,7.43
2023-10-26T19:14:20.214Z,6.65
2023-10-26T19:17:22.639Z,6.80
2023-10-26T19:20:26.021Z,7.50
2023-10-26T19:23:28.364Z,6.77
2023-10-26T19:26:30.606Z,11.73
2023-10-26T19:29:33.102Z,10.07
2023-10-26T19:32:35.644Z,7.03
2023-10-26T19:35:38.312Z,5.78
2023-10-26T19:38:40.762Z,6.20
2023-10-26T19:41:44.258Z,6.10
2023-10-26T19:44:47.145Z,5.60
2023-10-26T19:47:49.615Z,6.55
2023-10-26T19:50:51.957Z,6.43
2023-10-26T19:53:54.417Z,6.43
2023-10-26T19:56:57.296Z,5.65
2023-10-26T19:59:59.593Z,5.18
2023-10-26T20:03:02.132Z,4.97
2023-10-26T20:06:08.251Z,4.95
2023-10-26T20:09:10.657Z,5.10
2023-10-26T20:12:13.380Z,6.22
2023-10-26T20:15:16.569Z,5.72
2023-10-26T20:18:19.257Z,5.82
2023-10-26T20:21:21.465Z,5.78
2023-10-26T20:24:26.930Z,5.90
2023-10-26T20:27:30.649Z,5.90
2023-10-26T20:30:32.794Z,5.80
2023-10-26T20:33:35.033Z,6.80
2023-10-26T20:36:37.203Z,6.47
2023-10-26T20:39:39.670Z,6.37
2023-10-26T20:42:44.265Z,6.68
2023-10-26T20:45:47.523Z,7.22
2023-10-26T20:48:49.978Z,8.10
2023-10-26T20:51:52.081Z,7.78
2023-10-26T20:54:54.231Z,6.90
2023-10-26T20:57:56.449Z,7.95
2023-10-26T21:01:18.937Z,7.47
2023-10-26T21:04:21.327Z,7.85
2023-10-26T21:07:25.087Z,7.45
2023-10-26T21:10:27.348Z,6.50
2023-10-26T21:13:29.996Z,7.75
2023-10-26T21:16:32.941Z,9.35
2023-10-26T21:19:35.190Z,8.32
2023-10-26T21:22:37.379Z,9.77
2023-10-26T21:25:39.532Z,8.20
2023-10-26T21:28:42.750Z,7.75
2023-10-26T21:31:44.995Z,8.68
2023-10-26T21:34:47.203Z,8.85
2023-10-26T21:37:49.601Z,8.48
2023-10-26T21:40:51.826Z,9.37
2023-10-26T21:43:54.014Z,8.43
2023-10-26T21:46:56.210Z,9.27
2023-10-26T21:49:58.333Z,8.38
2023-10-26T21:53:00.494Z,8.43
2023-10-26T21:56:02.690Z,8.53
2023-10-26T21:59:04.853Z,8.65
2023-10-26T22:02:08.879Z,8.90
2023-10-26T22:05:11.149Z,8.23
2023-10-26T22:08:14.446Z,8.27
2023-10-26T22:11:16.510Z,8.93
2023-10-26T22:14:18.922Z,8.43
2023-10-26T22:17:21.151Z,9.30
2023-10-26T22:20:23.926Z,9.50
2023-10-26T22:23:26.040Z,9.70
2023-10-26T22:26:28.217Z,8.60
2023-10-26T22:29:30.933Z,9.10
2023-10-26T22:32:33.434Z,9.15
2023-10-26T22:35:35.903Z,8.10
2023-10-26T22:38:38.105Z,9.35
2023-10-26T22:41:40.222Z,8.53
2023-10-26T22:44:42.881Z,7.82
2023-10-26T22:47:45.322Z,7.95
2023-10-26T22:50:47.385Z,7.68
2023-10-26T22:53:49.799Z,8.30
2023-10-26T22:56:51.913Z,8.57
2023-10-26T22:59:56.063Z,8.50
2023-10-26T23:02:58.216Z,9.70
2023-10-26T23:06:00.540Z,8.00
2023-10-26T23:09:04.522Z,9.57
2023-10-26T23:12:06.766Z,8.17
2023-10-26T23:15:09.018Z,8.20
2023-10-26T23:18:11.138Z,7.40
2023-10-26T23:21:13.681Z,8.05
2023-10-26T23:24:16.013Z,7.68
2023-10-26T23:27:18.204Z,8.10
2023-10-26T23:30:20.427Z,7.68
2023-10-26T23:33:23.062Z,7.10
2023-10-26T23:36:25.298Z,7.30
2023-10-26T23:39:27.444Z,6.72
2023-10-26T23:42:29.572Z,7.83
2023-10-26T23:45:31.715Z,6.93
2023-10-26T23:48:34.843Z,7.40
2023-10-26T23:51:37.020Z,7.10
2023-10-26T23:54:39.242Z,7.70
2023-10-26T23:57:41.398Z,8.10
